Terminal Aerodrome Forecast
Issued by NWS Jackson, MS

Home | Current Version | Previous Version | Text Only | Print | Product List | Glossary On
Versions: 1 2 3 4 5 6 7 8 9 10 11 12 13
263
FTUS44 KJAN 210552
TAFJAN
TAF
KJAN 210552Z 2106/2206 15009KT 4SM SHRA BKN025 OVC050
     FM211100 20004KT 5SM SHRA BKN008 OVC025
     FM211900 26005KT P6SM VCSH BKN015 OVC090
     FM220100 30004KT P6SM VCSH BKN025 BKN250=

USA.gov is the U.S. government's official web portal to all federal, state and local government web resources and services.